createdAt,value
2018-01-17T00:02:26.158Z,96389.75
2018-01-17T00:04:54.741Z,96389.15
2018-01-17T00:07:24.685Z,96389.70
2018-01-17T00:09:53.398Z,96384.05
2018-01-17T00:12:21.800Z,96385.43
2018-01-17T00:14:50.428Z,96372.89
2018-01-17T00:17:18.743Z,96373.72
2018-01-17T00:19:47.388Z,96385.44
2018-01-17T00:22:16.393Z,96371.44
2018-01-17T00:24:44.704Z,96365.42
2018-01-17T00:27:12.999Z,96373.50
2018-01-17T00:29:42.030Z,96373.50
2018-01-17T00:32:10.328Z,96367.85
2018-01-17T00:34:38.686Z,96356.41
2018-01-17T00:37:07.039Z,96335.63
2018-01-17T00:39:35.360Z,96333.00
2018-01-17T00:42:03.651Z,96329.61
2018-01-17T00:44:31.976Z,96335.76
2018-01-17T00:47:00.487Z,96338.36
2018-01-17T00:49:29.243Z,96340.94
2018-01-17T00:51:58.331Z,96343.46
2018-01-17T00:54:26.624Z,96332.11
2018-01-17T00:56:54.924Z,96329.07
2018-01-17T00:59:23.268Z,96334.53
2018-01-17T01:01:51.566Z,96333.14
2018-01-17T01:04:19.867Z,96325.97
2018-01-17T01:06:49.122Z,96323.20
2018-01-17T01:09:17.431Z,96324.52
2018-01-17T01:11:46.167Z,96324.64
2018-01-17T01:14:14.520Z,96323.57
2018-01-17T01:16:42.817Z,96320.20
2018-01-17T01:19:11.115Z,96319.61
2018-01-17T01:21:39.823Z,96325.24
2018-01-17T01:24:08.115Z,96341.98
2018-01-17T01:26:36.416Z,96338.44
2018-01-17T01:29:05.976Z,96340.69
2018-01-17T01:31:34.958Z,96343.45
2018-01-17T01:34:03.308Z,96347.48
2018-01-17T01:36:32.425Z,96334.52
2018-01-17T01:39:00.827Z,96339.14
2018-01-17T01:41:29.138Z,96345.88
2018-01-17T01:43:57.490Z,96345.83
2018-01-17T01:46:26.026Z,96346.48
2018-01-17T01:49:01.991Z,96349.70
2018-01-17T01:51:31.589Z,96334.66
2018-01-17T01:53:59.935Z,96343.63
2018-01-17T01:56:28.278Z,96333.94
2018-01-17T01:58:56.669Z,96323.31
2018-01-17T02:01:25.009Z,96322.54
2018-01-17T02:03:53.350Z,96333.15
2018-01-17T02:06:21.733Z,96335.94
2018-01-17T02:08:50.842Z,96337.31
2018-01-17T02:11:19.183Z,96335.38
2018-01-17T02:13:48.548Z,96339.41
2018-01-17T02:16:16.898Z,96341.77
2018-01-17T02:18:45.248Z,96342.64
2018-01-17T02:21:13.601Z,96351.08
2018-01-17T02:23:42.319Z,96343.26
2018-01-17T02:26:11.410Z,96340.55
2018-01-17T02:28:40.078Z,96340.57
2018-01-17T02:31:14.758Z,96332.81
2018-01-17T02:33:43.505Z,96319.71
2018-01-17T02:36:11.815Z,96336.44
2018-01-17T02:38:40.141Z,96337.34
2018-01-17T02:41:09.079Z,96346.80
2018-01-17T02:43:37.860Z,96342.88
2018-01-17T02:46:06.736Z,96342.86
2018-01-17T02:48:35.044Z,96342.43
2018-01-17T02:51:03.352Z,96336.29
2018-01-17T02:53:32.386Z,96328.16
2018-01-17T02:56:00.691Z,96326.87
2018-01-17T02:58:28.995Z,96321.27
2018-01-17T03:00:58.064Z,96320.34
2018-01-17T03:03:26.408Z,96312.39
2018-01-17T03:05:54.803Z,96313.41
2018-01-17T03:08:23.157Z,96302.75
2018-01-17T03:10:51.455Z,96301.73
2018-01-17T03:13:20.579Z,96313.14
2018-01-17T03:15:48.923Z,96312.53
2018-01-17T03:18:17.229Z,96321.57
2018-01-17T03:20:45.527Z,96316.09
2018-01-17T03:23:13.896Z,96311.27
2018-01-17T03:25:42.541Z,96317.11
2018-01-17T03:28:10.840Z,96322.28
2018-01-17T03:30:39.189Z,96320.12
2018-01-17T03:33:08.804Z,96318.70
2018-01-17T03:35:37.836Z,96330.56
2018-01-17T03:38:06.190Z,96336.87
2018-01-17T03:40:35.368Z,96323.41
2018-01-17T03:43:03.688Z,96333.67
2018-01-17T03:45:31.988Z,96341.68
2018-01-17T03:48:00.331Z,96348.11
2018-01-17T03:50:28.622Z,96334.42
2018-01-17T03:52:56.915Z,96333.14
2018-01-17T03:55:25.247Z,96325.63
2018-01-17T03:57:53.546Z,96319.90
2018-01-17T04:00:21.858Z,96321.69
2018-01-17T04:02:50.228Z,96324.69
2018-01-17T04:05:18.747Z,96319.54
2018-01-17T04:07:47.055Z,96312.55
2018-01-17T04:10:15.399Z,96313.81
2018-01-17T04:12:43.873Z,96311.80
2018-01-17T04:15:12.171Z,96319.00
2018-01-17T04:17:40.515Z,96337.00
2018-01-17T04:20:08.807Z,96338.06
2018-01-17T04:22:37.115Z,96349.56
2018-01-17T04:25:05.714Z,96341.92
2018-01-17T04:27:34.010Z,96377.78
2018-01-17T04:30:02.627Z,96380.34
2018-01-17T04:32:31.238Z,96394.91
2018-01-17T04:35:00.020Z,96397.75
2018-01-17T04:37:28.781Z,96408.80
2018-01-17T04:39:57.563Z,96417.83
2018-01-17T04:42:27.010Z,96407.75
2018-01-17T04:44:55.502Z,96420.36
2018-01-17T04:47:23.850Z,96425.12
2018-01-17T04:49:52.155Z,96431.93
2018-01-17T04:52:20.467Z,96434.48
2018-01-17T04:54:48.806Z,96426.47
2018-01-17T04:57:17.098Z,96434.62
2018-01-17T04:59:45.712Z,96451.17
2018-01-17T05:02:14.215Z,96442.86
2018-01-17T05:04:42.512Z,96440.99
2018-01-17T05:07:10.870Z,96443.31
2018-01-17T05:09:39.222Z,96452.91
2018-01-17T05:12:07.979Z,96454.48
2018-01-17T05:14:36.354Z,96456.33
2018-01-17T05:17:05.523Z,96464.31
2018-01-17T05:19:33.819Z,96476.70
2018-01-17T05:22:02.116Z,96468.72
2018-01-17T05:24:31.166Z,96466.11
2018-01-17T05:26:59.458Z,96476.29
2018-01-17T05:29:27.766Z,96487.01
2018-01-17T05:31:56.131Z,96482.02
2018-01-17T05:34:24.434Z,96482.34
2018-01-17T05:36:53.182Z,96482.07
2018-01-17T05:39:21.528Z,96491.41
2018-01-17T05:41:49.829Z,96488.24
2018-01-17T05:44:18.895Z,96497.94
2018-01-17T05:46:47.250Z,96496.28
2018-01-17T05:49:15.683Z,96508.69
2018-01-17T05:51:43.996Z,96514.98
2018-01-17T05:54:12.323Z,96512.69
2018-01-17T05:56:40.627Z,96516.88
2018-01-17T05:59:08.938Z,96515.88
2018-01-17T06:01:37.451Z,96524.25
2018-01-17T06:04:05.858Z,96524.84
2018-01-17T06:06:34.439Z,96520.52
2018-01-17T06:09:03.468Z,96524.59
2018-01-17T06:11:31.771Z,96523.97
2018-01-17T06:14:00.088Z,96527.50
2018-01-17T06:16:29.067Z,96513.27
2018-01-17T06:18:58.179Z,96515.82
2018-01-17T06:21:26.503Z,96523.88
2018-01-17T06:23:54.847Z,96516.98
2018-01-17T06:26:23.143Z,96512.98
2018-01-17T06:28:51.454Z,96526.80
2018-01-17T06:31:20.480Z,96545.78
2018-01-17T06:33:48.955Z,96548.55
2018-01-17T06:36:18.656Z,96547.88
2018-01-17T06:38:47.279Z,96557.54
2018-01-17T06:41:15.583Z,96545.91
2018-01-17T06:43:43.887Z,96567.28
2018-01-17T06:46:12.491Z,96575.48
2018-01-17T06:48:40.794Z,96594.41
2018-01-17T06:51:09.095Z,96605.36
2018-01-17T06:53:38.184Z,96619.09
2018-01-17T06:56:06.486Z,96623.06
2018-01-17T06:58:35.004Z,96611.73
2018-01-17T07:01:05.427Z,96613.98
2018-01-17T07:03:34.336Z,96633.39
2018-01-17T07:06:02.665Z,96649.44
2018-01-17T07:08:31.102Z,96666.48
2018-01-17T07:11:00.160Z,96698.06
2018-01-17T07:13:28.464Z,96681.20
2018-01-17T07:15:57.405Z,96680.41
2018-01-17T07:18:25.699Z,96701.28
2018-01-17T07:20:54.016Z,96687.67
2018-01-17T07:23:22.642Z,96704.89
2018-01-17T07:25:50.947Z,96712.86
2018-01-17T07:28:19.252Z,96720.93
2018-01-17T07:30:48.007Z,96726.87
2018-01-17T07:33:16.503Z,96723.43
2018-01-17T07:35:44.802Z,96746.09
2018-01-17T07:38:13.151Z,96746.61
2018-01-17T07:40:41.463Z,96747.77
2018-01-17T07:43:10.228Z,96754.30
2018-01-17T07:45:39.319Z,96758.49
2018-01-17T07:48:07.640Z,96763.35
2018-01-17T07:50:35.931Z,96770.07
2018-01-17T07:53:04.278Z,96774.81
2018-01-17T07:55:32.579Z,96783.22
2018-01-17T07:58:00.884Z,96778.73
2018-01-17T08:00:29.240Z,96785.21
2018-01-17T08:02:57.543Z,96806.52
2018-01-17T08:05:25.864Z,96812.56
2018-01-17T08:07:54.214Z,96813.19
2018-01-17T08:10:23.007Z,96805.27
2018-01-17T08:12:51.303Z,96815.56
2018-01-17T08:15:20.275Z,96810.57
2018-01-17T08:17:48.586Z,96806.45
2018-01-17T08:20:17.531Z,96802.11
2018-01-17T08:22:45.911Z,96823.88
2018-01-17T08:25:14.943Z,96847.35
2018-01-17T08:27:43.239Z,96856.73
2018-01-17T08:30:11.698Z,96860.34
2018-01-17T08:32:40.005Z,96855.77
2018-01-17T08:35:08.316Z,96875.63
2018-01-17T08:37:36.704Z,96886.36
2018-01-17T08:40:05.703Z,96882.11
2018-01-17T08:42:34.623Z,96892.80
2018-01-17T08:45:02.991Z,96887.62
2018-01-17T08:47:31.284Z,96896.60
2018-01-17T08:49:59.637Z,96901.73
2018-01-17T08:52:27.979Z,96907.33
2018-01-17T08:54:56.423Z,96910.55
2018-01-17T08:57:24.860Z,96911.10
2018-01-17T08:59:53.202Z,96917.23
2018-01-17T09:02:21.512Z,96915.03
2018-01-17T09:04:49.802Z,96913.78
2018-01-17T09:07:18.922Z,96910.55
2018-01-17T09:09:47.235Z,96925.60
2018-01-17T09:12:15.530Z,96940.81
2018-01-17T09:14:43.876Z,96949.23
2018-01-17T09:17:12.179Z,96957.89
2018-01-17T09:19:40.485Z,96946.84
2018-01-17T09:22:08.823Z,96955.36
2018-01-17T09:24:37.747Z,96956.58
2018-01-17T09:27:06.248Z,96963.62
2018-01-17T09:29:34.683Z,96975.27
2018-01-17T09:32:03.008Z,96988.63
2018-01-17T09:34:31.323Z,96999.61
2018-01-17T09:36:59.946Z,97017.94
2018-01-17T09:39:28.375Z,97020.66
2018-01-17T09:41:56.680Z,97030.91
2018-01-17T09:44:25.310Z,96993.25
2018-01-17T09:46:54.379Z,97050.85
2018-01-17T09:49:22.683Z,97046.08
2018-01-17T09:51:51.280Z,97058.58
2018-01-17T09:54:19.603Z,97075.30
2018-01-17T09:56:48.623Z,97043.46
2018-01-17T09:59:17.483Z,97007.09
2018-01-17T10:01:45.791Z,97000.61
2018-01-17T10:04:14.144Z,97017.04
2018-01-17T10:06:42.604Z,97021.19
2018-01-17T10:09:10.922Z,97018.92
2018-01-17T10:11:39.223Z,97024.76
2018-01-17T10:14:07.576Z,97034.42
2018-01-17T10:16:35.883Z,97038.52
2018-01-17T10:19:04.184Z,97049.35
2018-01-17T10:21:33.211Z,97055.48
2018-01-17T10:24:01.522Z,97056.97
2018-01-17T10:26:29.824Z,97065.91
2018-01-17T10:28:58.166Z,97076.64
2018-01-17T10:31:27.993Z,97083.23
2018-01-17T10:33:56.303Z,97092.80
2018-01-17T10:36:25.033Z,97099.09
2018-01-17T10:38:53.340Z,97112.45
2018-01-17T10:41:22.403Z,97104.34
2018-01-17T10:43:51.610Z,97114.66
2018-01-17T10:46:19.927Z,97119.52
2018-01-17T10:48:48.239Z,97120.35
2018-01-17T10:51:18.936Z,97127.16
2018-01-17T10:53:47.232Z,97126.53
2018-01-17T10:56:15.535Z,97143.94
2018-01-17T10:58:43.871Z,97137.45
2018-01-17T11:01:13.035Z,97147.70
2018-01-17T11:03:41.386Z,97153.41
2018-01-17T11:06:10.332Z,97160.78
2018-01-17T11:08:38.667Z,97164.84
2018-01-17T11:11:06.963Z,97162.17
2018-01-17T11:13:35.320Z,97168.88
2018-01-17T11:16:03.627Z,97174.52
2018-01-17T11:18:32.696Z,97182.73
2018-01-17T11:21:01.815Z,97184.41
2018-01-17T11:23:30.875Z,97197.46
2018-01-17T11:25:59.176Z,97187.63
2018-01-17T11:28:27.515Z,97198.92
2018-01-17T11:30:57.043Z,97187.38
2018-01-17T11:33:25.343Z,97200.11
2018-01-17T11:35:53.709Z,97177.24
2018-01-17T11:38:22.779Z,97206.64
2018-01-17T11:40:51.087Z,97209.61
2018-01-17T11:43:20.188Z,97208.62
2018-01-17T11:45:49.246Z,97202.91
2018-01-17T11:48:17.546Z,97231.34
2018-01-17T11:50:45.880Z,97230.19
2018-01-17T11:53:15.607Z,97197.45
2018-01-17T11:55:43.904Z,97226.96
2018-01-17T11:58:12.546Z,97233.56
2018-01-17T12:00:40.843Z,97215.49
2018-01-17T12:03:09.206Z,97223.43
2018-01-17T12:05:37.551Z,97235.61
2018-01-17T12:08:06.647Z,97245.97
2018-01-17T12:10:35.715Z,97252.78
2018-01-17T12:13:04.307Z,97263.95
2018-01-17T12:15:32.606Z,97261.92
2018-01-17T12:18:00.911Z,97268.16
2018-01-17T12:20:29.263Z,97280.50
2018-01-17T12:22:57.559Z,97279.91
2018-01-17T12:25:26.333Z,97271.57
2018-01-17T12:27:54.689Z,97280.13
2018-01-17T12:30:23.752Z,97280.69
2018-01-17T12:32:52.057Z,97275.94
2018-01-17T12:35:20.419Z,97264.67
2018-01-17T12:37:48.728Z,97277.96
2018-01-17T12:40:17.022Z,97274.23
2018-01-17T12:42:45.372Z,97286.09
2018-01-17T12:45:13.663Z,97275.96
2018-01-17T12:47:42.038Z,97276.83
2018-01-17T12:50:10.722Z,97280.84
2018-01-17T12:52:39.091Z,97283.46
2018-01-17T12:57:43.109Z,97282.67
2018-01-17T13:00:11.444Z,97279.09
2018-01-17T13:02:39.748Z,97306.09
2018-01-17T13:05:08.467Z,97291.86
2018-01-17T13:07:36.768Z,97288.34
2018-01-17T13:10:05.483Z,97304.19
2018-01-17T13:12:34.024Z,97308.82
2018-01-17T13:15:02.679Z,97324.66
2018-01-17T13:17:30.979Z,97342.67
2018-01-17T13:20:00.071Z,97351.07
2018-01-17T13:22:28.384Z,97358.64
2018-01-17T13:24:56.771Z,97350.41
2018-01-17T13:27:26.416Z,97346.19
2018-01-17T13:29:54.859Z,97344.48
2018-01-17T13:32:23.165Z,97338.61
2018-01-17T13:34:51.516Z,97335.25
2018-01-17T13:37:19.844Z,97347.14
2018-01-17T13:39:48.151Z,97339.92
2018-01-17T13:42:16.480Z,97358.05
2018-01-17T13:44:44.786Z,97351.06
2018-01-17T13:47:13.853Z,97362.70
2018-01-17T13:49:42.563Z,97368.53
2018-01-17T13:52:10.884Z,97377.94
2018-01-17T13:54:39.203Z,97379.84
2018-01-17T13:57:07.556Z,97373.77
2018-01-17T13:59:35.856Z,97357.64
2018-01-17T14:02:04.159Z,97364.48
2018-01-17T14:04:33.172Z,97366.63
2018-01-17T14:07:01.468Z,97363.02
2018-01-17T14:09:29.761Z,97355.91
2018-01-17T14:11:58.093Z,97352.26
2018-01-17T14:14:26.391Z,97352.47
2018-01-17T14:16:55.459Z,97354.05
2018-01-17T14:19:24.544Z,97352.55
2018-01-17T14:21:52.849Z,97365.56
2018-01-17T14:24:21.201Z,97355.73
2018-01-17T14:26:49.505Z,97362.16
2018-01-17T14:29:17.827Z,97376.77
2018-01-17T14:31:46.632Z,97380.38
2018-01-17T14:34:14.938Z,97390.38
2018-01-17T14:36:43.286Z,97392.27
2018-01-17T14:39:11.631Z,97402.25
2018-01-17T14:41:39.931Z,97403.88
2018-01-17T14:44:09.016Z,97409.92
2018-01-17T14:46:37.451Z,97421.69
2018-01-17T14:49:05.762Z,97421.13
2018-01-17T14:51:34.376Z,97422.17
2018-01-17T14:54:03.453Z,97428.25
2018-01-17T14:56:31.762Z,97435.96
2018-01-17T14:59:00.063Z,97421.80
2018-01-17T15:01:28.414Z,97425.40
2018-01-17T15:03:57.099Z,97427.78
2018-01-17T15:06:25.423Z,97426.08
2018-01-17T15:08:53.765Z,97430.80
2018-01-17T15:11:22.071Z,97439.09
2018-01-17T15:13:50.363Z,97449.98
2018-01-17T15:16:19.764Z,97449.98
2018-01-17T15:18:48.126Z,97449.91
2018-01-17T15:21:16.428Z,97448.84
2018-01-17T15:23:45.444Z,97448.09
2018-01-17T15:26:13.873Z,97447.15
2018-01-17T15:28:42.175Z,97450.52
2018-01-17T15:31:10.479Z,97449.30
2018-01-17T15:33:41.396Z,97449.20
2018-01-17T15:36:09.730Z,97447.67
2018-01-17T15:38:38.028Z,97462.06
2018-01-17T15:41:06.377Z,97461.58
2018-01-17T15:43:34.685Z,97460.80
2018-01-17T15:46:03.340Z,97474.20
2018-01-17T15:48:32.198Z,97467.31
2018-01-17T15:51:00.496Z,97471.47
2018-01-17T15:53:28.803Z,97483.14
2018-01-17T15:55:57.832Z,97473.31
2018-01-17T15:58:26.144Z,97469.62
2018-01-17T16:00:54.731Z,97467.98
2018-01-17T16:03:24.242Z,97474.09
2018-01-17T16:05:53.318Z,97487.74
2018-01-17T16:08:21.611Z,97486.97
2018-01-17T16:10:50.103Z,97497.66
2018-01-17T16:13:18.481Z,97505.16
2018-01-17T16:15:47.343Z,97495.80
2018-01-17T16:18:16.347Z,97505.06
2018-01-17T16:20:45.415Z,97507.28
2018-01-17T16:23:13.739Z,97512.12
2018-01-17T16:25:42.079Z,97521.20
2018-01-17T16:28:10.603Z,97518.30
2018-01-17T16:30:39.202Z,97513.95
2018-01-17T16:33:08.558Z,97530.77
2018-01-17T16:35:36.866Z,97521.80
2018-01-17T16:38:05.166Z,97539.48
2018-01-17T16:40:34.565Z,97552.69
2018-01-17T16:43:03.592Z,97566.00
2018-01-17T16:45:31.910Z,97567.88
2018-01-17T16:48:00.512Z,97568.13
2018-01-17T16:50:29.263Z,97552.27
2018-01-17T16:52:58.385Z,97556.73
2018-01-17T16:55:26.738Z,97554.66
2018-01-17T16:57:55.050Z,97555.70
2018-01-17T17:00:23.394Z,97573.02
2018-01-17T17:02:52.461Z,97573.91
2018-01-17T17:05:20.940Z,97554.73
2018-01-17T17:07:50.559Z,97564.09
2018-01-17T17:10:18.955Z,97550.09
2018-01-17T17:12:47.825Z,97535.61
2018-01-17T17:15:16.204Z,97536.52
2018-01-17T17:17:45.316Z,97546.89
2018-01-17T17:20:13.679Z,97546.92
2018-01-17T17:22:41.983Z,97549.64
2018-01-17T17:25:10.326Z,97553.64
2018-01-17T17:27:39.352Z,97548.58
2018-01-17T17:30:07.725Z,97543.30
2018-01-17T17:32:36.027Z,97544.89
2018-01-17T17:35:04.825Z,97548.89
2018-01-17T17:37:34.031Z,97556.07
2018-01-17T17:40:02.423Z,97556.24
2018-01-17T17:42:30.747Z,97548.24
2018-01-17T17:44:59.823Z,97563.25
2018-01-17T17:47:28.115Z,97563.03
2018-01-17T17:49:56.414Z,97561.52
2018-01-17T17:52:24.763Z,97555.73
2018-01-17T17:54:53.054Z,97567.53
2018-01-17T17:57:21.352Z,97577.58
2018-01-17T17:59:50.264Z,97578.19
2018-01-17T18:02:18.579Z,97573.55
2018-01-17T18:04:46.888Z,97619.02
2018-01-17T18:07:15.916Z,97625.14
2018-01-17T18:09:45.011Z,97630.98
2018-01-17T18:12:14.212Z,97640.66
2018-01-17T18:14:43.378Z,97635.80
2018-01-17T18:17:13.684Z,97643.27
2018-01-17T18:19:42.880Z,97649.65
2018-01-17T18:22:12.016Z,97657.23
2018-01-17T18:24:40.935Z,97660.05
2018-01-17T18:27:09.400Z,97670.55
2018-01-17T18:29:37.703Z,97674.19
2018-01-17T18:32:06.202Z,97679.25
2018-01-17T18:34:34.651Z,97684.66
2018-01-17T18:37:03.987Z,97675.94
2018-01-17T18:39:33.187Z,97696.90
2018-01-17T18:42:02.606Z,97700.36
2018-01-17T18:44:31.730Z,97697.11
2018-01-17T18:47:01.025Z,97698.95
2018-01-17T18:49:29.319Z,97717.17
2018-01-17T18:51:57.664Z,97707.98
2018-01-17T18:54:26.231Z,97707.97
2018-01-17T18:56:54.532Z,97708.66
2018-01-17T18:59:23.123Z,97711.18
2018-01-17T19:01:51.424Z,97713.05
2018-01-17T19:04:19.723Z,97708.36
2018-01-17T19:06:48.796Z,97721.92
2018-01-17T19:09:17.115Z,97733.35
2018-01-17T19:11:46.436Z,97723.58
2018-01-17T19:14:14.935Z,97722.20
2018-01-17T19:16:43.234Z,97727.55
2018-01-17T19:19:11.721Z,97720.20
2018-01-17T19:21:40.032Z,97734.38
2018-01-17T19:24:09.845Z,97719.20
2018-01-17T19:26:39.720Z,97728.27
2018-01-17T19:29:08.020Z,97725.72
2018-01-17T19:31:36.317Z,97739.66
2018-01-17T19:34:04.666Z,97743.16
2018-01-17T19:36:33.013Z,97747.08
2018-01-17T19:39:01.279Z,97766.09
2018-01-17T19:41:29.987Z,97775.16
2018-01-17T19:43:58.342Z,97775.25
2018-01-17T19:46:26.703Z,97772.67
2018-01-17T19:48:55.215Z,97786.99
2018-01-17T19:51:23.511Z,97779.55
2018-01-17T19:53:51.849Z,97779.29
2018-01-17T19:56:20.267Z,97773.64
2018-01-17T19:58:49.368Z,97774.02
2018-01-17T20:01:17.686Z,97779.51
2018-01-17T20:03:46.058Z,97773.95
2018-01-17T20:06:14.404Z,97776.08
2018-01-17T20:08:42.740Z,97783.98
2018-01-17T20:11:11.031Z,97781.55
2018-01-17T20:13:39.403Z,97784.37
2018-01-17T20:16:07.724Z,97789.40
2018-01-17T20:18:36.073Z,97789.10
2018-01-17T20:21:05.282Z,97776.77
2018-01-17T20:23:34.130Z,97778.88
2018-01-17T20:26:02.431Z,97779.05
2018-01-17T20:28:31.380Z,97781.54
2018-01-17T20:30:59.740Z,97787.19
2018-01-17T20:33:28.771Z,97793.48
2018-01-17T20:35:58.132Z,97801.20
2018-01-17T20:38:26.459Z,97787.28
2018-01-17T20:40:54.946Z,97794.27
2018-01-17T20:43:23.562Z,97799.95
2018-01-17T20:45:51.918Z,97800.48
2018-01-17T20:48:20.482Z,97814.11
2018-01-17T20:50:49.220Z,97809.11
2018-01-17T20:53:17.563Z,97824.44
2018-01-17T20:55:45.867Z,97831.78
2018-01-17T21:49:14.386Z,97846.09
2018-01-17T21:51:42.878Z,97842.53
2018-01-17T21:54:13.106Z,97856.22
2018-01-17T21:56:41.844Z,97855.52
2018-01-17T21:59:10.227Z,97850.03
2018-01-17T22:01:38.585Z,97849.67
2018-01-17T22:04:07.705Z,97842.83
2018-01-17T22:06:38.104Z,97835.67
2018-01-17T22:09:06.411Z,97844.06
2018-01-17T22:11:34.885Z,97838.59
2018-01-17T22:14:04.620Z,97840.45
2018-01-17T22:16:33.477Z,97841.14
2018-01-17T22:19:01.897Z,97839.67
2018-01-17T22:21:30.584Z,97842.69
2018-01-17T22:23:58.957Z,97847.73
2018-01-17T22:26:27.342Z,97846.09
2018-01-17T22:28:55.647Z,97854.00
2018-01-17T22:31:25.308Z,97858.30
2018-01-17T22:33:53.670Z,97863.61
2018-01-17T22:36:21.976Z,97865.83
2018-01-17T22:38:51.046Z,97868.75
2018-01-17T22:41:19.410Z,97867.04
2018-01-17T22:43:47.980Z,97875.26
2018-01-17T22:46:16.280Z,97867.73
2018-01-17T22:48:44.636Z,97869.66
2018-01-17T22:51:12.939Z,97871.34
2018-01-17T22:53:41.252Z,97871.89
2018-01-17T22:56:09.608Z,97879.09
2018-01-17T22:58:37.921Z,97884.84
2018-01-17T23:01:06.230Z,97885.09
2018-01-17T23:03:35.352Z,97884.18
2018-01-17T23:06:03.668Z,97874.00
2018-01-17T23:08:31.988Z,97873.34
2018-01-17T23:11:00.343Z,97872.80
2018-01-17T23:13:28.656Z,97873.34
2018-01-17T23:15:57.311Z,97871.34
2018-01-17T23:18:25.656Z,97879.42
2018-01-17T23:20:53.964Z,97876.11
2018-01-17T23:23:22.279Z,97864.55
2018-01-17T23:25:51.154Z,97872.67
2018-01-17T23:28:19.499Z,97869.45
2018-01-17T23:30:47.807Z,97866.73
2018-01-17T23:33:16.770Z,97863.20
2018-01-17T23:35:45.085Z,97855.32
2018-01-17T23:38:13.397Z,97859.48
2018-01-17T23:40:41.770Z,97865.97
2018-01-17T23:43:10.083Z,97865.09
2018-01-17T23:45:38.381Z,97864.16
2018-01-17T23:48:06.736Z,97856.58
2018-01-17T23:50:35.052Z,97843.65
2018-01-17T23:53:03.355Z,97842.37
2018-01-17T23:55:33.052Z,97838.75
2018-01-17T23:58:01.354Z,97828.84
